Time;durP1;ratioP1;P1;durP2;ratioP2;P2;SDS_P1;SDS_P2;PMS_P1;PMS_P2;Temp;Humidity;BMP_temperature;BMP_pressure;BME280_temperature;BME280_humidity;BME280_pressure;Samples;Min_cycle;Max_cycle;Signal;HPM_P1;HPM_P2
2023/06/24 00:00:29;;;;;;;7.57;6.50;;;;;;;15.42;100.00;102296.06;1047819;28;20045;-49
2023/06/24 00:01:01;;;;;;;6.47;5.95;;;;;;;15.41;100.00;102299.81;1048193;28;20036;-49
2023/06/24 00:01:33;;;;;;;7.22;6.63;;;;;;;15.38;100.00;102297.53;1047506;28;20052;-47
2023/06/24 00:02:05;;;;;;;6.72;6.13;;;;;;;15.37;100.00;102297.75;1047984;28;20423;-50
2023/06/24 00:02:37;;;;;;;7.80;7.00;;;;;;;15.39;100.00;102295.69;1044115;28;20063;-49
2023/06/24 00:03:09;;;;;;;7.95;7.13;;;;;;;15.43;100.00;102299.59;1043635;28;20037;-51
2023/06/24 00:03:46;;;;;;;8.55;7.75;;;;;;;15.41;100.00;102294.44;1043995;28;20509;-47
2023/06/24 00:04:20;;;;;;;7.55;6.47;;;;;;;15.38;100.00;102292.19;1043592;28;20053;-47
2023/06/24 00:04:52;;;;;;;7.72;6.93;;;;;;;15.37;100.00;102297.75;1044134;28;20090;-46
2023/06/24 00:05:24;;;;;;;7.63;6.90;;;;;;;15.35;100.00;102289.91;1044066;28;20049;-46
2023/06/24 00:05:56;;;;;;;7.45;6.75;;;;;;;15.34;100.00;102298.16;1043978;28;20045;-51
2023/06/24 00:06:28;;;;;;;10.13;7.75;;;;;;;15.28;100.00;102299.84;1048024;28;20048;-44
2023/06/24 00:07:00;;;;;;;7.30;6.65;;;;;;;15.24;100.00;102292.41;1048050;28;20036;-45
2023/06/24 00:07:35;;;;;;;7.63;6.90;;;;;;;15.27;100.00;102297.34;1048750;28;20174;-44
2023/06/24 00:08:07;;;;;;;7.32;6.63;;;;;;;15.27;100.00;102303.56;1048572;28;20051;-45
2023/06/24 00:08:40;;;;;;;10.02;7.20;;;;;;;15.30;100.00;102297.75;1048740;28;20045;-45
2023/06/24 00:09:12;;;;;;;7.40;6.68;;;;;;;15.29;100.00;102300.66;1049197;28;20036;-49
2023/06/24 00:09:44;;;;;;;8.38;7.43;;;;;;;15.26;100.00;102301.09;1049526;28;20517;-55
2023/06/24 00:10:15;;;;;;;8.40;7.07;;;;;;;15.24;100.00;102295.94;1048367;28;20059;-55
2023/06/24 00:10:49;;;;;;;7.95;7.25;;;;;;;15.18;100.00;102299.47;1045038;28;20121;-56
2023/06/24 00:11:20;;;;;;;9.93;6.10;;;;;;;15.15;100.00;102294.50;1044996;28;20074;-55
2023/06/24 00:11:52;;;;;;;8.65;7.80;;;;;;;15.17;100.00;102291.63;1044807;28;20045;-56
2023/06/24 00:12:23;;;;;;;8.00;6.40;;;;;;;15.17;100.00;102297.00;1044892;28;20041;-55
2023/06/24 00:12:55;;;;;;;8.25;7.55;;;;;;;15.17;100.00;102297.81;1044899;28;20076;-56
2023/06/24 00:13:28;;;;;;;7.75;7.05;;;;;;;15.19;100.00;102295.75;1044306;28;20510;-56
2023/06/24 00:14:00;;;;;;;8.48;6.82;;;;;;;15.18;100.00;102299.47;1044586;28;20155;-56
2023/06/24 00:14:32;;;;;;;7.57;6.35;;;;;;;15.19;100.00;102300.28;1047065;28;20123;-49
2023/06/24 00:15:04;;;;;;;8.32;7.53;;;;;;;15.17;100.00;102297.00;1049060;28;20045;-56
2023/06/24 00:15:35;;;;;;;8.00;7.30;;;;;;;15.13;100.00;102302.78;1048967;28;20056;-56
2023/06/24 00:16:07;;;;;;;8.00;6.82;;;;;;;15.09;100.00;102301.56;1049048;28;20490;-56
2023/06/24 00:16:41;;;;;;;7.38;6.65;;;;;;;15.08;100.00;102299.91;1048718;28;20317;-56
2023/06/24 00:17:13;;;;;;;8.38;6.55;;;;;;;15.06;100.00;102299.25;1051558;28;20040;-50
2023/06/24 00:17:45;;;;;;;7.15;6.45;;;;;;;15.05;100.00;102305.66;1049676;28;20032;-55
2023/06/24 00:18:17;;;;;;;7.85;7.05;;;;;;;15.02;100.00;102306.09;1049099;28;20040;-56
2023/06/24 00:18:49;;;;;;;6.85;6.15;;;;;;;15.00;100.00;102301.97;1049094;28;20379;-56
2023/06/24 00:19:24;;;;;;;7.93;6.43;;;;;;;14.99;100.00;102301.16;1048872;28;20048;-55
2023/06/24 00:19:56;;;;;;;6.97;6.38;;;;;;;14.99;100.00;102303.00;1049041;28;20494;-55
2023/06/24 00:20:28;;;;;;;7.22;6.63;;;;;;;14.98;100.00;102304.88;1048553;28;20123;-56
2023/06/24 00:21:01;;;;;;;7.78;6.63;;;;;;;15.05;100.00;102304.84;1048642;28;20037;-56
2023/06/24 00:21:32;;;;;;;7.18;6.47;;;;;;;15.10;100.00;102307.75;1049026;28;20037;-56
2023/06/24 00:22:05;;;;;;;8.00;7.20;;;;;;;15.07;100.00;102310.84;1050103;28;20070;-55
2023/06/24 00:22:43;;;;;;;9.57;7.07;;;;;;;15.07;100.00;102310.84;1048315;28;20040;-55
2023/06/24 00:23:17;;;;;;;6.75;6.15;;;;;;;15.04;100.00;102309.38;1049248;28;20123;-56
2023/06/24 00:23:49;;;;;;;7.07;6.38;;;;;;;15.01;100.00;102301.75;1048804;28;20044;-55
2023/06/24 00:24:25;;;;;;;6.43;5.93;;;;;;;14.97;100.00;102308.59;1048707;28;20037;-56
2023/06/24 00:24:57;;;;;;;7.63;6.93;;;;;;;14.96;100.00;102301.56;1046747;28;20106;-56
2023/06/24 00:25:32;;;;;;;7.45;6.65;;;;;;;15.01;100.00;102308.97;1048205;28;20052;-56
2023/06/24 00:26:04;;;;;;;9.73;7.40;;;;;;;15.06;100.00;102307.31;1048836;28;20040;-56
2023/06/24 00:26:36;;;;;;;10.68;7.25;;;;;;;15.13;100.00;102307.31;1049111;28;20486;-55
2023/06/24 00:27:07;;;;;;;7.35;6.72;;;;;;;15.15;100.00;102300.72;1049983;28;20044;-55
2023/06/24 00:27:40;;;;;;;7.25;6.57;;;;;;;15.18;100.00;102304.00;1048585;28;20055;-56
2023/06/24 00:28:12;;;;;;;8.63;7.43;;;;;;;15.24;100.00;102308.53;1048435;28;20041;-55
2023/06/24 00:28:44;;;;;;;9.13;8.05;;;;;;;15.23;100.00;102309.56;1048318;28;20047;-56
2023/06/24 00:29:16;;;;;;;8.25;6.38;;;;;;;15.20;100.00;102301.94;1046186;28;20521;-55
2023/06/24 00:29:48;;;;;;;7.55;6.80;;;;;;;15.16;100.00;102296.16;1043668;28;20045;-50
2023/06/24 00:30:20;;;;;;;7.00;6.30;;;;;;;15.15;100.00;102299.88;1041171;28;20155;-48
2023/06/24 00:30:52;;;;;;;8.30;7.03;;;;;;;15.10;100.00;102297.84;1040425;28;20068;-51
2023/06/24 00:31:24;;;;;;;6.90;6.30;;;;;;;15.09;100.00;102301.56;1038207;28;20049;-48
2023/06/24 00:31:56;;;;;;;7.95;7.22;;;;;;;15.10;100.00;102303.19;1044108;28;20037;-47
2023/06/24 00:32:27;;;;;;;8.85;6.32;;;;;;;15.14;100.00;102304.44;1044685;28;20055;-50
2023/06/24 00:33:02;;;;;;;6.97;6.38;;;;;;;15.19;100.00;102305.66;1048772;28;20041;-49
2023/06/24 00:33:35;;;;;;;7.45;6.75;;;;;;;15.21;100.00;102308.94;1050847;28;20043;-55
2023/06/24 00:34:08;;;;;;;8.20;7.47;;;;;;;15.23;100.00;102312.25;1053735;28;20080;-50
2023/06/24 00:34:43;;;;;;;7.18;6.45;;;;;;;15.23;100.00;102306.88;1052720;28;20494;-50
2023/06/24 00:35:15;;;;;;;8.43;7.15;;;;;;;15.26;100.00;102311.81;1044888;28;20041;-47
2023/06/24 00:35:47;;;;;;;8.20;7.10;;;;;;;15.29;100.00;102311.41;1045544;28;20053;-47
2023/06/24 00:36:20;;;;;;;8.07;7.28;;;;;;;15.30;100.00;102307.66;1046233;28;20036;-48
2023/06/24 00:36:52;;;;;;;8.00;7.30;;;;;;;15.31;100.00;102312.00;1048658;28;20044;-48
2023/06/24 00:37:23;;;;;;;7.38;6.68;;;;;;;15.28;100.00;102315.13;1048760;28;20099;-50
2023/06/24 00:37:58;;;;;;;8.00;7.20;;;;;;;15.21;100.00;102315.13;1048536;28;20036;-46
2023/06/24 00:38:32;;;;;;;7.97;7.18;;;;;;;15.18;100.00;102317.44;1049227;28;20158;-56
2023/06/24 00:39:06;;;;;;;7.80;7.03;;;;;;;15.08;100.00;102309.81;1044707;28;20510;-48
2023/06/24 00:39:39;;;;;;;7.95;7.20;;;;;;;15.10;100.00;102308.56;1039766;28;20053;-50
2023/06/24 00:40:14;;;;;;;8.57;7.75;;;;;;;15.06;100.00;102307.31;1035841;28;20050;-49
2023/06/24 00:40:46;;;;;;;9.52;7.15;;;;;;;15.01;100.00;102303.63;1038819;28;20085;-46
2023/06/24 00:41:18;;;;;;;8.65;6.90;;;;;;;15.00;100.00;102305.47;1041252;28;20479;-49
2023/06/24 00:41:50;;;;;;;7.75;7.05;;;;;;;15.01;100.00;102304.44;1040463;28;20069;-50
2023/06/24 00:42:22;;;;;;;10.10;7.18;;;;;;;15.01;100.00;102301.75;1044142;28;20136;-50
2023/06/24 00:42:54;;;;;;;8.50;7.65;;;;;;;14.98;100.00;102304.88;1040670;28;20170;-49
2023/06/24 00:43:26;;;;;;;9.13;7.45;;;;;;;14.96;100.00;102301.56;1044584;28;20048;-48
2023/06/24 00:43:59;;;;;;;8.77;7.22;;;;;;;14.94;100.00;102297.44;1045274;28;20553;-55
2023/06/24 00:44:39;;;;;;;8.32;7.50;;;;;;;14.88;100.00;102299.13;1042425;28;20128;-56
2023/06/24 00:45:11;;;;;;;9.88;7.63;;;;;;;14.85;100.00;102299.53;1044777;28;20041;-55
2023/06/24 00:45:43;;;;;;;9.52;7.35;;;;;;;14.81;100.00;102303.69;1047689;28;20049;-56
2023/06/24 00:46:19;;;;;;;8.05;7.35;;;;;;;14.79;100.00;102300.34;1045307;28;20552;-53
2023/06/24 00:46:51;;;;;;;7.38;6.50;;;;;;;14.76;100.00;102296.22;1044292;28;20421;-48
2023/06/24 00:47:23;;;;;;;8.07;7.28;;;;;;;14.72;100.00;102299.53;1044230;28;20041;-48
2023/06/24 00:47:56;;;;;;;8.63;7.72;;;;;;;14.75;100.00;102296.44;1045341;28;20045;-47
2023/06/24 00:48:28;;;;;;;8.00;7.20;;;;;;;14.73;100.00;102299.31;1040703;28;20080;-50
2023/06/24 00:49:02;;;;;;;8.95;8.05;;;;;;;14.71;100.00;102300.56;1044660;28;20462;-49
2023/06/24 00:49:34;;;;;;;9.98;7.97;;;;;;;14.69;100.00;102294.59;1040121;28;20537;-47
2023/06/24 00:50:06;;;;;;;10.43;7.22;;;;;;;14.71;100.00;102297.88;1042251;28;20045;-49
2023/06/24 00:50:42;;;;;;;11.15;7.28;;;;;;;14.70;100.00;102301.59;1048465;28;20040;-49
2023/06/24 00:51:13;;;;;;;8.93;7.60;;;;;;;14.69;100.00;102297.28;1045078;28;20052;-46
2023/06/24 00:51:50;;;;;;;7.63;6.75;;;;;;;14.69;100.00;102299.97;1048483;28;20384;-49
2023/06/24 00:52:22;;;;;;;15.32;7.68;;;;;;;14.69;100.00;102294.59;1048384;28;20037;-46
2023/06/24 00:52:54;;;;;;;9.65;8.32;;;;;;;14.69;100.00;102294.59;1049379;28;20044;-47
2023/06/24 00:53:26;;;;;;;7.80;6.70;;;;;;;14.67;100.00;102292.13;1044456;28;20069;-47
2023/06/24 00:53:58;;;;;;;8.95;7.88;;;;;;;14.68;100.00;102298.31;1044360;28;20112;-50
2023/06/24 00:54:31;;;;;;;8.85;7.95;;;;;;;14.68;100.00;102292.94;1043890;28;20049;-49
2023/06/24 00:55:04;;;;;;;8.43;7.63;;;;;;;14.69;100.00;102298.09;1045010;28;20041;-50
2023/06/24 00:55:36;;;;;;;8.98;8.10;;;;;;;14.72;100.00;102296.84;1048004;28;20522;-45
2023/06/24 00:56:13;;;;;;;8.80;8.00;;;;;;;14.71;100.00;102296.03;1043218;28;20044;-50
2023/06/24 00:56:45;;;;;;;8.07;6.47;;;;;;;14.71;100.00;102297.88;1038739;28;20052;-49
2023/06/24 00:57:24;;;;;;;8.05;7.30;;;;;;;14.70;100.00;102294.38;1032352;28;20057;-45
2023/06/24 00:57:55;;;;;;;8.52;7.18;;;;;;;14.71;100.00;102298.72;1039915;28;20148;-50
2023/06/24 00:58:30;;;;;;;10.63;7.55;;;;;;;14.72;100.00;102297.69;1041664;28;20057;-48
2023/06/24 00:59:02;;;;;;;8.75;7.22;;;;;;;14.75;100.00;102297.25;1045691;28;20773;-49
2023/06/24 00:59:35;;;;;;;7.57;6.88;;;;;;;14.76;100.00;102300.75;1048113;28;20110;-46
2023/06/24 01:00:16;;;;;;;10.73;6.97;;;;;;;14.82;100.00;102297.28;1044958;28;20128;-49
2023/06/24 01:00:56;;;;;;;8.85;7.95;;;;;;;14.91;100.00;102296.00;1039913;28;20065;-49
2023/06/24 01:01:31;;;;;;;;;;;;;;;14.91;100.00;102301.38;1040388;28;20511;-47
2023/06/24 01:02:04;;;;;;;7.03;6.28;;;;;;;14.87;100.00;102297.47;1043326;28;20286;-49
2023/06/24 01:02:38;;;;;;;9.68;6.93;;;;;;;14.90;100.00;102301.59;1052824;28;20044;-49
2023/06/24 01:03:14;;;;;;;8.75;7.35;;;;;;;14.88;100.00;102299.13;1052900;28;20044;-48
2023/06/24 01:03:46;;;;;;;9.80;7.25;;;;;;;14.88;100.00;102293.75;1052625;28;20044;-48
2023/06/24 01:04:18;;;;;;;8.05;7.35;;;;;;;14.87;100.00;102297.47;1052583;28;20044;-48
2023/06/24 01:04:51;;;;;;;7.80;7.00;;;;;;;14.86;100.00;102300.38;1052755;28;20043;-50
2023/06/24 01:05:24;;;;;;;8.57;7.75;;;;;;;14.86;100.00;102300.38;1049115;28;20131;-50
2023/06/24 01:05:56;;;;;;;8.75;7.85;;;;;;;14.86;100.00;102298.50;1051200;28;20047;-46
2023/06/24 01:06:31;;;;;;;8.18;7.40;;;;;;;14.85;100.00;102294.19;1050827;28;20512;-55
2023/06/24 01:07:05;;;;;;;9.15;8.25;;;;;;;14.84;100.00;102295.22;1049754;28;20040;-56
2023/06/24 01:07:37;;;;;;;11.43;7.97;;;;;;;14.85;100.00;102296.84;1048373;28;20513;-55
2023/06/24 01:08:15;;;;;;;8.18;7.43;;;;;;;14.85;100.00;102294.19;1049535;28;20040;-56
2023/06/24 01:08:50;;;;;;;8.80;7.88;;;;;;;14.83;100.00;102297.06;1048572;28;20169;-56
2023/06/24 01:09:23;;;;;;;10.10;7.82;;;;;;;14.85;100.00;102296.84;1050338;28;20043;-56
2023/06/24 01:09:55;;;;;;;9.52;6.95;;;;;;;14.84;100.00;102298.72;1048289;28;20044;-55
2023/06/24 01:10:27;;;;;;;9.82;8.05;;;;;;;14.87;100.00;102297.47;1048832;28;20056;-55
2023/06/24 01:10:59;;;;;;;8.60;7.70;;;;;;;14.87;100.00;102302.00;1049416;28;20076;-46
2023/06/24 01:11:31;;;;;;;9.23;7.85;;;;;;;14.88;100.00;102296.44;1049070;28;20077;-49
2023/06/24 01:12:03;;;;;;;8.52;7.82;;;;;;;14.88;100.00;102299.13;1048655;28;20056;-50
2023/06/24 01:12:43;;;;;;;10.30;7.95;;;;;;;14.90;100.00;102293.53;1048328;28;20040;-47
2023/06/24 01:13:15;;;;;;;8.20;7.38;;;;;;;14.95;100.00;102294.56;1048230;28;20037;-47
2023/06/24 01:13:50;;;;;;;9.05;7.75;;;;;;;14.95;100.00;102299.91;1048349;28;20036;-49
2023/06/24 01:14:23;;;;;;;8.02;7.32;;;;;;;14.94;100.00;102298.28;1048623;28;20056;-48
2023/06/24 01:14:55;;;;;;;8.10;7.40;;;;;;;14.91;100.00;102293.34;1044705;28;20037;-51
2023/06/24 01:15:30;;;;;;;8.52;7.65;;;;;;;14.92;100.00;102299.53;1040080;28;20049;-56
2023/06/24 01:16:08;;;;;;;9.10;8.02;;;;;;;14.89;100.00;102292.72;1041155;28;20045;-56
2023/06/24 01:16:49;;;;;;;10.00;8.35;;;;;;;14.87;100.00;102291.28;1046629;28;20045;-56
2023/06/24 01:17:29;;;;;;;8.55;7.75;;;;;;;14.84;100.00;102301.41;1048091;28;20095;-56
2023/06/24 01:18:11;;;;;;;8.95;7.90;;;;;;;14.83;100.00;102293.56;1046809;28;20135;-56
2023/06/24 01:18:46;;;;;;;8.30;7.43;;;;;;;14.83;100.00;102302.44;1044022;28;20048;-56
2023/06/24 01:20:22;;;;;;;8.77;7.50;;;;;;;14.86;100.00;102295.81;1043701;28;20049;-55
2023/06/24 01:20:55;;;;;;;7.68;6.90;;;;;;;14.89;100.00;102290.03;1032364;28;20136;-55
2023/06/24 01:21:43;;;;;;;7.03;6.43;;;;;;;14.89;100.00;102290.03;1032988;28;20089;-56
2023/06/24 01:22:51;;;;;;;9.38;7.47;;;;;;;14.92;100.00;102294.16;1031476;28;20054;-55
2023/06/24 01:23:38;;;;;;;12.07;7.43;;;;;;;14.94;100.00;102292.91;1034171;28;20048;-56
2023/06/24 01:24:30;;;;;;;7.07;6.38;;;;;;;14.96;100.00;102295.38;1044791;28;20077;-55
2023/06/24 01:25:21;;;;;;;;;;;;;;;14.97;100.00;102297.03;1040127;28;20042;-56
2023/06/24 01:26:21;;;;;;;7.57;6.78;;;;;;;14.98;100.00;102294.13;1041348;28;19992;-56
2023/06/24 01:27:15;;;;;;;8.63;6.90;;;;;;;14.96;100.00;102298.88;1047512;28;20041;-56
2023/06/24 01:28:00;;;;;;;9.57;6.82;;;;;;;14.97;100.00;102297.84;1049463;28;20051;-55
2023/06/24 01:29:06;;;;;;;8.18;7.35;;;;;;;14.95;100.00;102291.88;1044150;28;20059;-55
2023/06/24 01:30:14;;;;;;;8.52;6.18;;;;;;;14.92;100.00;102288.78;1038613;28;20135;-56
2023/06/24 01:31:06;;;;;;;7.63;6.43;;;;;;;14.89;100.00;102291.88;1040287;28;20096;-56
2023/06/24 01:32:00;;;;;;;9.18;6.28;;;;;;;14.86;100.00;102290.47;1052360;28;20040;-55
2023/06/24 01:32:45;;;;;;;8.68;6.53;;;;;;;14.81;100.00;102292.94;1052591;28;20040;-56
2023/06/24 01:33:23;;;;;;;7.43;6.53;;;;;;;14.80;100.00;102293.97;1046991;28;20048;-56
2023/06/24 01:34:15;;;;;;;12.30;7.00;;;;;;;14.80;100.00;102291.28;1037419;28;20064;-56
2023/06/24 01:34:57;;;;;;;6.95;5.80;;;;;;;14.78;100.00;102288.78;1036736;28;20529;-56
2023/06/24 01:35:35;;;;;;;;;;;;;;;14.76;100.00;102284.66;1036212;28;20555;-55
2023/06/24 01:36:11;;;;;;;7.45;6.53;;;;;;;14.73;100.00;102290.47;1040848;28;19921;-49
2023/06/24 01:36:47;;;;;;;8.30;7.25;;;;;;;14.71;100.00;102292.53;1047448;28;20055;-47
2023/06/24 01:37:20;;;;;;;8.45;5.90;;;;;;;14.71;100.00;102297.88;1043773;28;20056;-47
2023/06/24 01:37:52;;;;;;;9.65;6.85;;;;;;;14.73;100.00;102293.13;1044705;28;20049;-47
2023/06/24 01:38:37;;;;;;;8.93;6.40;;;;;;;14.70;100.00;102297.06;1040280;28;20041;-49
2023/06/24 01:39:11;;;;;;;7.07;6.35;;;;;;;14.70;100.00;102290.88;1042557;28;20041;-49
2023/06/24 01:39:49;;;;;;;6.82;6.15;;;;;;;14.69;100.00;102299.97;1047784;28;20086;-52
2023/06/24 01:40:27;;;;;;;6.82;6.10;;;;;;;14.68;100.00;102288.41;1043553;28;20045;-55
2023/06/24 01:41:00;;;;;;;8.07;6.55;;;;;;;14.66;100.00;102290.47;1044552;28;20052;-54
2023/06/24 01:41:34;;;;;;;8.40;6.95;;;;;;;14.68;100.00;102292.94;1044616;28;20049;-48
2023/06/24 01:42:11;;;;;;;9.70;6.72;;;;;;;14.65;100.00;102291.50;1036956;28;20046;-48
2023/06/24 01:42:44;;;;;;;9.27;6.53;;;;;;;14.65;100.00;102288.00;1033734;28;20041;-50
2023/06/24 01:43:17;;;;;;;8.18;6.65;;;;;;;14.64;100.00;102287.19;1041647;28;20415;-47
2023/06/24 01:43:52;;;;;;;10.18;7.05;;;;;;;14.63;100.00;102290.06;1042530;28;20563;-55
2023/06/24 01:44:25;;;;;;;9.13;7.50;;;;;;;14.61;100.00;102289.44;1048896;28;20041;-56
2023/06/24 01:44:57;;;;;;;9.32;6.97;;;;;;;14.59;100.00;102286.16;1040343;28;20049;-56
2023/06/24 01:45:40;;;;;;;8.55;6.97;;;;;;;14.60;100.00;102295.84;1039743;28;20092;-56
2023/06/24 01:46:12;;;;;;;7.47;6.78;;;;;;;14.62;100.00;102283.06;1039796;28;20110;-56
2023/06/24 01:46:46;;;;;;;9.80;6.57;;;;;;;14.64;100.00;102284.50;1051735;28;20141;-56
2023/06/24 01:47:21;;;;;;;7.63;6.43;;;;;;;14.65;100.00;102288.00;1058984;27;20058;-56
2023/06/24 01:48:14;;;;;;;6.97;6.28;;;;;;;14.67;100.00;102292.13;1052461;28;20040;-55
2023/06/24 01:48:46;;;;;;;6.55;5.85;;;;;;;14.65;100.00;102277.28;1046733;28;20403;-55
2023/06/24 01:49:20;;;;;;;6.95;6.28;;;;;;;14.65;100.00;102282.63;1039613;28;20067;-56
2023/06/24 01:49:54;;;;;;;7.25;6.13;;;;;;;14.61;100.00;102286.78;1046313;28;20051;-56
2023/06/24 01:50:27;;;;;;;9.43;6.95;;;;;;;14.61;100.00;102281.41;1039653;28;20048;-56
2023/06/24 01:51:01;;;;;;;8.52;6.95;;;;;;;14.59;100.00;102280.78;1042310;28;20523;-56
2023/06/24 01:51:35;;;;;;;7.20;6.50;;;;;;;14.68;100.00;102277.69;1048202;28;20044;-56
2023/06/24 01:52:09;;;;;;;8.00;6.93;;;;;;;14.75;100.00;102280.34;1044937;28;20048;-55
2023/06/24 01:52:42;;;;;;;6.95;6.25;;;;;;;14.78;100.00;102277.25;1037271;28;20045;-56
2023/06/24 01:53:15;;;;;;;6.38;5.88;;;;;;;14.76;100.00;102285.50;1039682;28;20033;-55
2023/06/24 01:53:51;;;;;;;7.40;5.90;;;;;;;14.74;100.00;102276.00;1035021;28;20405;-55
2023/06/24 01:54:24;;;;;;;8.05;6.47;;;;;;;14.71;100.00;102277.25;1035302;28;20045;-55
2023/06/24 01:54:56;;;;;;;9.98;6.45;;;;;;;14.69;100.00;102278.50;1039669;28;20041;-56
2023/06/24 01:55:29;;;;;;;7.05;6.00;;;;;;;14.65;100.00;102282.63;1032015;28;20054;-55
2023/06/24 01:56:02;;;;;;;7.75;6.13;;;;;;;14.64;100.00;102275.63;1037449;28;20049;-55
2023/06/24 01:56:37;;;;;;;6.72;6.10;;;;;;;14.62;100.00;102275.00;1032467;28;20081;-56
2023/06/24 01:57:11;;;;;;;6.80;6.10;;;;;;;14.59;100.00;102278.94;1030739;28;20806;-56
2023/06/24 01:57:44;;;;;;;6.20;5.60;;;;;;;14.59;100.00;102278.94;1036232;28;20069;-54
2023/06/24 01:58:17;;;;;;;10.40;7.03;;;;;;;14.58;100.00;102276.47;1036772;28;20046;-55
2023/06/24 01:58:51;;;;;;;7.88;6.57;;;;;;;14.56;100.00;102270.47;1045095;28;20072;-56
2023/06/24 01:59:23;;;;;;;8.88;6.57;;;;;;;14.53;100.00;102272.56;1040070;28;20408;-56
2023/06/24 01:59:55;;;;;;;7.75;6.82;;;;;;;14.50;100.00;102275.63;1040067;28;20054;-55
2023/06/24 02:00:27;;;;;;;8.60;7.18;;;;;;;14.50;100.00;102278.28;1043830;28;20045;-55
2023/06/24 02:01:00;;;;;;;9.20;6.97;;;;;;;14.50;100.00;102280.97;1045555;28;20044;-55
2023/06/24 02:01:33;;;;;;;7.95;7.18;;;;;;;14.52;100.00;102273.59;1049923;28;20142;-55
2023/06/24 02:02:05;;;;;;;8.65;7.75;;;;;;;14.52;100.00;102278.13;1052260;28;20103;-55
2023/06/24 02:02:38;;;;;;;8.75;7.22;;;;;;;14.49;100.00;102279.34;1045674;28;20484;-55
2023/06/24 02:03:09;;;;;;;7.78;6.90;;;;;;;14.48;100.00;102275.00;1039927;28;20100;-55
2023/06/24 02:03:42;;;;;;;9.48;7.70;;;;;;;14.47;100.00;102281.41;1040516;28;20091;-56
2023/06/24 02:04:14;;;;;;;8.45;7.55;;;;;;;14.45;100.00;102274.59;1040800;28;20037;-55
2023/06/24 02:04:48;;;;;;;7.60;6.80;;;;;;;14.43;100.00;102274.81;1041600;28;20037;-47
2023/06/24 02:05:20;;;;;;;7.03;6.32;;;;;;;14.40;100.00;102274.38;1039339;28;20079;-48
2023/06/24 02:05:53;;;;;;;9.18;7.80;;;;;;;14.33;100.00;102269.00;1036833;28;20089;-50
2023/06/24 02:06:26;;;;;;;11.95;6.97;;;;;;;14.32;100.00;102272.72;1045281;28;20033;-48
2023/06/24 02:07:01;;;;;;;7.60;6.90;;;;;;;14.30;100.00;102264.06;1044886;28;20488;-50
2023/06/24 02:07:34;;;;;;;7.90;7.20;;;;;;;14.28;100.00;102271.47;1045319;28;20182;-49
2023/06/24 02:08:08;;;;;;;11.55;8.15;;;;;;;14.29;100.00;102273.13;1042375;28;20541;-48
2023/06/24 02:08:41;;;;;;;8.85;7.45;;;;;;;14.33;100.00;102271.69;1042248;28;20065;-55
2023/06/24 02:09:15;;;;;;;9.15;8.25;;;;;;;14.38;100.00;102263.84;1041241;28;20057;-56
2023/06/24 02:09:47;;;;;;;9.13;7.43;;;;;;;14.43;100.00;102277.47;1041206;28;20042;-56
2023/06/24 02:10:20;;;;;;;9.55;8.43;;;;;;;14.46;100.00;102271.69;1039871;28;20211;-56
2023/06/24 02:10:52;;;;;;;9.27;7.78;;;;;;;14.51;100.00;102271.91;1040764;28;20236;-56
2023/06/24 02:11:24;;;;;;;9.07;8.23;;;;;;;14.53;100.00;102269.88;1048554;28;20514;-56
2023/06/24 02:12:01;;;;;;;11.30;8.30;;;;;;;14.49;100.00;102279.34;1043285;28;20041;-56
2023/06/24 02:12:33;;;;;;;11.80;7.50;;;;;;;14.48;100.00;102266.13;1039808;28;20045;-56
2023/06/24 02:13:05;;;;;;;8.50;7.60;;;;;;;14.49;100.00;102273.97;1039274;28;20038;-56
2023/06/24 02:13:38;;;;;;;9.43;8.35;;;;;;;14.56;100.00;102274.00;1041109;28;20462;-56
2023/06/24 02:14:17;;;;;;;9.10;8.07;;;;;;;14.59;100.00;102275.44;1033994;28;20039;-56
2023/06/24 02:14:49;;;;;;;10.25;8.13;;;;;;;14.61;100.00;102271.50;1039364;28;20101;-56
2023/06/24 02:15:22;;;;;;;9.63;8.40;;;;;;;14.66;100.00;102273.56;1045355;28;20040;-56
2023/06/24 02:15:54;;;;;;;10.73;9.10;;;;;;;14.70;100.00;102269.41;1050266;28;20513;-56
2023/06/24 02:16:29;;;;;;;10.15;9.15;;;;;;;14.70;100.00;102270.25;1051926;28;20039;-53
2023/06/24 02:17:03;;;;;;;11.57;8.18;;;;;;;14.65;100.00;102271.91;1044552;28;20049;-46
2023/06/24 02:17:39;;;;;;;9.32;8.25;;;;;;;14.63;100.00;102274.81;1044084;28;20052;-48
2023/06/24 02:18:11;;;;;;;8.77;7.97;;;;;;;14.64;100.00;102275.63;1043744;28;20495;-48
2023/06/24 02:18:43;;;;;;;8.50;7.70;;;;;;;14.61;100.00;102259.94;1041213;28;20099;-48
2023/06/24 02:19:17;;;;;;;8.30;7.50;;;;;;;14.57;100.00;102274.81;1039242;28;20057;-46
2023/06/24 02:19:50;;;;;;;8.10;7.32;;;;;;;14.56;100.00;102267.81;1036639;28;20156;-49
2023/06/24 02:20:27;;;;;;;8.82;8.05;;;;;;;14.55;100.00;102276.88;1036112;28;20046;-50
2023/06/24 02:21:01;;;;;;;8.85;8.02;;;;;;;14.49;100.00;102273.97;1036295;28;20084;-46
2023/06/24 02:21:41;;;;;;;10.93;7.82;;;;;;;14.49;100.00;102273.97;1043283;28;20045;-55
2023/06/24 02:22:13;;;;;;;9.18;8.20;;;;;;;14.47;100.00;102265.31;1043474;28;20045;-44
2023/06/24 02:22:45;;;;;;;8.70;7.90;;;;;;;14.44;100.00;102272.94;1042503;28;20045;-48
2023/06/24 02:23:17;;;;;;;10.02;8.63;;;;;;;14.40;100.00;102274.38;1036323;28;20128;-46
2023/06/24 02:23:49;;;;;;;9.25;8.43;;;;;;;14.37;100.00;102275.59;1040316;28;20052;-50
2023/06/24 02:24:21;;;;;;;8.50;7.72;;;;;;;14.33;100.00;102274.38;1040559;28;20116;-47
2023/06/24 02:24:53;;;;;;;13.32;7.97;;;;;;;14.34;100.00;102272.50;1045067;28;20478;-48
2023/06/24 02:25:26;;;;;;;9.35;8.45;;;;;;;14.32;100.00;102277.25;1052379;28;20090;-48
2023/06/24 02:25:58;;;;;;;10.25;9.27;;;;;;;14.32;100.00;102272.72;1048861;28;20040;-47
2023/06/24 02:26:30;;;;;;;14.15;8.50;;;;;;;14.31;100.00;102273.75;1048036;28;20040;-50
2023/06/24 02:27:03;;;;;;;8.77;8.05;;;;;;;14.32;100.00;102278.09;1048165;28;20069;-56
2023/06/24 02:27:35;;;;;;;8.57;7.78;;;;;;;14.35;100.00;102277.66;1049745;28;20040;-45
2023/06/24 02:28:08;;;;;;;10.20;7.18;;;;;;;14.34;100.00;102278.69;1052463;28;20043;-48
2023/06/24 02:28:40;;;;;;;9.65;8.70;;;;;;;14.31;100.00;102276.44;1052682;28;20036;-48
2023/06/24 02:29:12;;;;;;;8.88;7.85;;;;;;;14.31;100.00;102275.59;1049263;28;20032;-49
2023/06/24 02:29:46;;;;;;;12.10;8.48;;;;;;;14.28;100.00;102279.53;1044090;28;20100;-56
2023/06/24 02:30:19;;;;;;;9.15;8.35;;;;;;;14.26;100.00;102281.59;1039597;28;20175;-55
2023/06/24 02:30:51;;;;;;;10.25;7.68;;;;;;;14.24;100.00;102275.59;1037723;28;20034;-52
2023/06/24 02:31:23;;;;;;;10.07;8.57;;;;;;;14.22;100.00;102280.31;1037147;28;20512;-56
2023/06/24 02:31:55;;;;;;;8.20;7.40;;;;;;;14.17;100.00;102274.75;1042315;28;20045;-56
2023/06/24 02:32:27;;;;;;;8.38;7.57;;;;;;;14.18;100.00;102271.03;1042240;28;20045;-47
2023/06/24 02:32:58;;;;;;;9.25;8.23;;;;;;;14.17;100.00;102280.13;1040117;28;20056;-48
2023/06/24 02:33:30;;;;;;;9.52;7.50;;;;;;;14.17;100.00;102277.44;1039759;28;20431;-47
2023/06/24 02:34:02;;;;;;;8.70;7.90;;;;;;;14.16;100.00;102273.94;1036866;28;20066;-55
2023/06/24 02:34:34;;;;;;;8.48;7.68;;;;;;;14.18;100.00;102276.41;1043128;28;20087;-56
2023/06/24 02:35:07;;;;;;;9.90;8.52;;;;;;;14.17;100.00;102274.75;1039364;28;20129;-55
2023/06/24 02:35:41;;;;;;;8.50;7.70;;;;;;;14.18;100.00;102273.72;1038971;28;20116;-55
2023/06/24 02:36:13;;;;;;;10.55;8.20;;;;;;;14.17;100.00;102267.53;1041807;28;20100;-47
2023/06/24 02:36:44;;;;;;;9.75;8.35;;;;;;;14.20;100.00;102275.16;1044843;28;20451;-56
2023/06/24 02:37:16;;;;;;;9.30;8.02;;;;;;;14.20;100.00;102279.72;1048019;28;20040;-56
2023/06/24 02:37:48;;;;;;;8.10;7.07;;;;;;;14.19;100.00;102267.34;1048639;28;20174;-46
2023/06/24 02:38:20;;;;;;;8.73;7.93;;;;;;;14.21;100.00;102278.66;1044509;28;20068;-56
2023/06/24 02:38:52;;;;;;;9.15;8.25;;;;;;;14.20;100.00;102268.97;1047658;28;20487;-54
2023/06/24 02:39:24;;;;;;;9.02;8.13;;;;;;;14.21;100.00;102276.00;1049157;28;20178;-56
2023/06/24 02:39:56;;;;;;;7.88;7.18;;;;;;;14.20;100.00;102269.81;1051702;28;20032;-55